Low Head, Tasmania

6:27 AM EST on July 29, 2014 (GMT +1000)
Deviot (ITASMANI93) Elev 56 ft | 41.23 °S, 146.93 °E | Change Station

Current weather conditions updated 12 seconds ago

Light Rain
Light Rain
53.2 °F
Feels Like 53.2 °F
N
25.9
Wind Variable Wind from North
Gusts 39.6 mph

Today is forecast to be Cooler than yesterday. Rain and wind with a few rumbles of thunder.

Today
High -- | Low -- °F
--% Chance of Precip.
Yesterday
High -- | Low -- °F
Precip. -- in
7:23 AM 5:15 PM
Waxing Crescent, 3% visible
Pressure 29.44 in
Visibility 3.1 miles
Clouds Scattered Clouds 900 ft
Mostly Cloudy 1800 ft
Mostly Cloudy 3300 ft
Dew Point 51 °F
Humidity 91%
Rainfall 9.83 in
Snow Depth Not available.
UV 0 out of 12
Pollen Not available.
Air Quality Not available.
Flu Activity Not available.
METAR YMLT 282001Z AUTO 34023G33KT 5000 -RA SCT009 BKN018 BKN033 11/10 Q0997 RERA

More Conditions Fewer Conditions

Pressure 29.44 in
Visibility 3.1 miles
Clouds Scattered Clouds 900 ft
Mostly Cloudy 1800 ft
Mostly Cloudy 3300 ft
Dew Point 51 °F
Humidity 91%
Rainfall 9.83 in
Snow Depth Not available.
UV 0 out of 12
Pollen Not available.
Air Quality Not available.
Flu Activity Not available.
METAR YMLT 282001Z AUTO 34023G33KT 5000 -RA SCT009 BKN018 BKN033 11/10 Q0997 RERA

More Conditions Fewer Conditions

10-Day Weather Forecast

Almanac

Astronomy

Jul. 29, 2014 Rise Set
Actual Time 7:23 AM EST 5:15 PM EST
Civil Twilight 6:54 AM EST 5:45 PM EST
Nautical Twilight 6:20 AM EST 6:18 PM EST
Astronomical Twilight 5:48 AM EST 6:50 PM EST
Moon 8:09 AM EST (7/29) 7:34 PM EST (7/29)
Length of Visible Light 10h 51m
Length of Day
9h 51m
Tomorrow will be 1m 54s longer.
Waxing Crescent, 3% of the Moon is Illuminated
Jul 28
Waxing Crescent
Aug 3
First Quarter
Aug 10
Full
Aug 17
Last Quarter
Aug 25
New

Yesterday's Extremes

Country Highs Country Lows

Community

WunderPhotos

Upload Photos

1,738,488 photos uploaded!

Nearby

Snow Depth

Not available.

Earthquake Activity

City Distance Mag. Time & Date
No recent earthquake activity has been reported nearby.
Minimum magnitude displayed is 2.5.

Coastal Water Temperatures

Place Temperature
No Stations Reporting

Nearby Weather Stations

Station Location Temp. Dew Point Humidity Wind Precip. Elev Updated Type
Deviot, Deviot 53.2 °F 51 °F 91% North  at  25.9 mph 9.45 in / hr 56 ft 6:27 AM EST Rapid Fire
Gravelly Beach, Gravelly Beach 53.1 °F 52 °F 98% NW  at  5.0 mph 0.13 in / hr 66 ft 6:25 AM EST Normal
Glengarry 51.4 °F 49 °F 89% NW  at  8.7 mph 0.00 in / hr 256 ft 6:18 AM EST Normal
Swan Bay, Swan Bay 53.2 °F 52 °F 94% West  at  11.0 mph 0.13 in / hr 95 ft 6:00 AM EST Normal
Miandetta, Miandetta 53.6 °F 53 °F 98% NNW  at  9.6 mph 0.30 in / hr 128 ft 6:27 AM EST Rapid Fire

Show More Stations Show Fewer Stations